createdAt,value
2019-05-10T00:00:31.286Z,98.08
2019-05-10T00:03:21.738Z,97.82
2019-05-10T00:06:12.294Z,97.82
2019-05-10T00:08:46.417Z,97.45
2019-05-10T00:11:29.288Z,97.90
2019-05-10T00:14:02.165Z,97.85
2019-05-10T00:16:34.965Z,97.85
2019-05-10T00:19:07.516Z,97.66
2019-05-10T00:21:40.283Z,97.79
2019-05-10T00:24:12.606Z,98.46
2019-05-10T00:26:45.289Z,98.46
2019-05-10T00:29:17.701Z,96.00
2019-05-10T00:31:50.285Z,96.00
2019-05-10T00:34:22.615Z,95.24
2019-05-10T00:36:55.269Z,95.24
2019-05-10T00:39:27.560Z,96.89
2019-05-10T00:42:00.844Z,95.00
2019-05-10T00:44:33.282Z,95.93
2019-05-10T00:47:05.769Z,94.36
2019-05-10T00:52:07.591Z,95.15
2019-05-10T00:54:44.487Z,94.74
2019-05-10T00:57:57.730Z,94.00
2019-05-10T01:00:31.304Z,94.00
2019-05-10T01:03:03.630Z,93.11
2019-05-10T01:05:36.161Z,93.11
2019-05-10T01:08:08.794Z,93.51
2019-05-10T01:10:42.045Z,94.61
2019-05-10T01:13:14.672Z,94.72
2019-05-10T01:15:47.768Z,95.14
2019-05-10T01:18:20.291Z,94.65
2019-05-10T01:20:52.702Z,92.35
2019-05-10T01:23:25.240Z,92.35
2019-05-10T01:25:57.558Z,92.91
2019-05-10T01:28:29.848Z,92.91
2019-05-10T01:31:02.307Z,92.68
2019-05-10T01:33:34.828Z,94.32
2019-05-10T01:36:07.302Z,94.32
2019-05-10T01:38:39.730Z,94.33
2019-05-10T01:41:13.635Z,94.33
2019-05-10T01:43:46.287Z,92.52
2019-05-10T01:46:20.296Z,93.11
2019-05-10T01:48:52.680Z,93.06
2019-05-10T01:51:27.776Z,93.06
2019-05-10T01:54:02.018Z,92.26
2019-05-10T01:56:34.474Z,93.24
2019-05-10T01:59:06.832Z,93.40
2019-05-10T02:01:39.303Z,93.87
2019-05-10T02:04:11.733Z,94.88
2019-05-10T02:06:44.292Z,94.88
2019-05-10T02:09:16.671Z,96.27
2019-05-10T02:11:50.773Z,96.73
2019-05-10T02:14:24.768Z,96.73
2019-05-10T02:16:57.288Z,96.98
2019-05-10T02:19:29.670Z,97.89
2019-05-10T02:22:02.090Z,97.89
2019-05-10T02:24:34.474Z,98.03
2019-05-10T02:27:06.842Z,97.30
2019-05-10T02:29:39.302Z,96.97
2019-05-10T02:32:11.601Z,96.68
2019-05-10T02:34:44.063Z,96.68
2019-05-10T02:37:16.355Z,97.56
2019-05-10T02:39:51.546Z,98.03
2019-05-10T02:42:23.811Z,98.03
2019-05-10T02:44:57.813Z,98.45
2019-05-10T02:47:30.286Z,98.54
2019-05-10T02:50:02.590Z,98.86
2019-05-10T02:52:35.346Z,98.86
2019-05-10T02:55:09.311Z,99.05
2019-05-10T02:57:42.298Z,98.96
2019-05-10T03:00:16.761Z,98.65
2019-05-10T03:02:51.280Z,98.65
2019-05-10T03:05:24.442Z,97.29
2019-05-10T03:08:00.327Z,98.09
2019-05-10T03:10:38.495Z,97.62
2019-05-10T03:13:16.463Z,97.62
2019-05-10T03:15:53.776Z,97.92
2019-05-10T03:18:29.637Z,97.98
2019-05-10T03:21:03.845Z,97.88
2019-05-10T03:23:36.390Z,98.39
2019-05-10T03:26:08.761Z,95.63
2019-05-10T03:28:41.286Z,95.63
2019-05-10T03:31:14.297Z,97.16
2019-05-10T03:33:54.922Z,96.68
2019-05-10T03:36:21.302Z,96.68
2019-05-10T03:38:53.791Z,97.41
2019-05-10T03:41:26.299Z,97.41
2019-05-10T03:43:58.585Z,97.93
2019-05-10T03:46:31.291Z,97.93
2019-05-10T03:49:03.633Z,97.82
2019-05-10T03:51:36.280Z,97.82
2019-05-10T03:54:08.609Z,99.04
2019-05-10T03:56:41.296Z,99.04
2019-05-10T03:59:13.744Z,98.72
2019-05-10T04:01:46.283Z,98.44
2019-05-10T04:04:18.692Z,97.56
2019-05-10T04:06:51.761Z,97.56
2019-05-10T04:09:24.351Z,96.42
2019-05-10T04:11:57.023Z,95.56
2019-05-10T04:14:29.510Z,95.56
2019-05-10T04:17:02.278Z,94.34
2019-05-10T04:19:34.635Z,94.50
2019-05-10T04:22:07.286Z,94.50
2019-05-10T04:24:39.585Z,94.81
2019-05-10T04:27:30.666Z,94.81
2019-05-10T04:29:54.848Z,94.82
2019-05-10T04:32:29.293Z,95.26
2019-05-10T04:35:01.558Z,91.89
2019-05-10T04:37:34.145Z,91.89
2019-05-10T04:40:09.286Z,91.96
2019-05-10T04:42:41.690Z,92.44
2019-05-10T04:45:16.283Z,92.44
2019-05-10T04:47:52.055Z,91.06
2019-05-10T04:50:24.464Z,91.33
2019-05-10T04:52:56.722Z,93.07
2019-05-10T04:55:29.289Z,93.38
2019-05-10T04:58:01.563Z,91.78
2019-05-10T05:00:34.286Z,91.78
2019-05-10T05:03:06.795Z,91.72
2019-05-10T05:05:39.303Z,91.72
2019-05-10T05:08:11.823Z,92.14
2019-05-10T05:10:44.284Z,92.14
2019-05-10T05:13:16.713Z,89.35
2019-05-10T05:15:49.293Z,89.35
2019-05-10T05:18:22.297Z,88.28
2019-05-10T05:20:54.801Z,88.71
2019-05-10T05:23:27.293Z,88.71
2019-05-10T05:26:01.510Z,88.00
2019-05-10T05:28:35.380Z,88.00
2019-05-10T05:31:09.809Z,85.99
2019-05-10T05:33:44.561Z,84.48
2019-05-10T05:36:17.288Z,84.48
2019-05-10T05:38:49.737Z,83.35
2019-05-10T05:41:23.309Z,83.35
2019-05-10T05:43:55.926Z,83.40
2019-05-10T05:46:28.300Z,83.40
2019-05-10T05:49:00.722Z,84.98
2019-05-10T05:51:33.380Z,84.98
2019-05-10T05:54:05.798Z,84.82
2019-05-10T05:56:38.340Z,82.64
2019-05-10T05:59:17.514Z,83.24
2019-05-10T06:01:46.490Z,81.87
2019-05-10T06:04:19.868Z,81.40
2019-05-10T06:06:53.622Z,81.42
2019-05-10T06:09:26.271Z,82.29
2019-05-10T06:11:58.760Z,79.47
2019-05-10T06:14:31.389Z,80.00
2019-05-10T06:17:03.924Z,77.61
2019-05-10T06:19:36.394Z,77.07
2019-05-10T06:22:08.838Z,77.38
2019-05-10T06:24:46.685Z,77.91
2019-05-10T06:27:18.311Z,76.11
2019-05-10T06:29:52.700Z,72.00
2019-05-10T06:32:25.282Z,72.00
2019-05-10T06:34:58.778Z,72.54
2019-05-10T06:37:31.568Z,72.54
2019-05-10T06:40:05.015Z,72.99
2019-05-10T06:42:38.168Z,72.48
2019-05-10T06:45:14.643Z,72.89
2019-05-10T06:47:47.784Z,72.89
2019-05-10T06:50:28.902Z,70.52
2019-05-10T06:53:00.647Z,70.52
2019-05-10T06:55:28.984Z,70.16
2019-05-10T06:58:03.430Z,70.16
2019-05-10T07:00:38.071Z,69.40
2019-05-10T07:03:11.814Z,68.09
2019-05-10T07:05:43.422Z,68.09
2019-05-10T07:08:20.301Z,67.76
2019-05-10T07:10:50.295Z,67.76
2019-05-10T07:15:28.243Z,65.24
2019-05-10T07:18:02.299Z,66.37
2019-05-10T07:20:35.459Z,66.79
2019-05-10T07:23:08.094Z,66.79
2019-05-10T07:25:44.285Z,66.39
2019-05-10T07:28:15.670Z,65.96
2019-05-10T07:30:49.057Z,65.96
2019-05-10T07:33:23.345Z,66.03
2019-05-10T07:35:55.874Z,65.54
2019-05-10T07:38:30.996Z,65.54
2019-05-10T07:41:02.770Z,66.29
2019-05-10T07:43:35.344Z,65.73
2019-05-10T07:46:09.051Z,65.27
2019-05-10T07:48:47.377Z,64.97
2019-05-10T07:51:17.428Z,64.97
2019-05-10T07:53:49.739Z,65.49
2019-05-10T07:56:23.675Z,64.32
2019-05-10T07:58:56.301Z,63.68
2019-05-10T08:01:32.538Z,63.01
2019-05-10T08:04:03.505Z,63.01
2019-05-10T08:06:44.027Z,63.34
2019-05-10T08:09:11.778Z,63.18
2019-05-10T08:11:44.363Z,63.31
2019-05-10T08:14:19.174Z,63.55
2019-05-10T08:16:58.387Z,63.55
2019-05-10T08:19:25.240Z,61.63
2019-05-10T08:22:01.796Z,60.09
2019-05-10T08:24:35.132Z,60.09
2019-05-10T08:27:11.656Z,60.10
2019-05-10T08:29:42.945Z,61.18
2019-05-10T08:32:19.252Z,61.18
2019-05-10T08:34:54.864Z,60.90
2019-05-10T08:37:31.057Z,60.56
2019-05-10T08:39:57.250Z,61.36
2019-05-10T08:42:43.829Z,60.96
2019-05-10T08:45:08.688Z,61.13
2019-05-10T08:47:38.576Z,59.55
2019-05-10T08:50:22.463Z,59.55
2019-05-10T08:52:44.411Z,59.25
2019-05-10T08:55:17.047Z,58.93
2019-05-10T08:57:49.481Z,56.01
2019-05-10T09:02:05.982Z,57.77
2019-05-10T09:04:43.620Z,55.69
2019-05-10T09:07:12.489Z,54.76
2019-05-10T09:09:49.638Z,54.07
2019-05-10T09:12:19.359Z,52.13
2019-05-10T09:14:57.345Z,51.85
2019-05-10T09:17:28.249Z,51.85
2019-05-10T09:19:59.876Z,50.10
2019-05-10T09:22:38.409Z,49.94
2019-05-10T09:25:09.291Z,49.99
2019-05-10T09:27:43.147Z,52.08
2019-05-10T09:30:32.453Z,52.08
2019-05-10T09:33:13.360Z,55.74
2019-05-10T09:35:46.924Z,59.66
2019-05-10T09:38:16.302Z,61.88
2019-05-10T09:40:53.039Z,63.83
2019-05-10T09:43:24.431Z,63.83
2019-05-10T09:45:56.755Z,63.96
2019-05-10T09:48:29.283Z,59.54
2019-05-10T09:51:04.313Z,59.29
2019-05-10T09:53:38.130Z,59.29
2019-05-10T09:56:11.435Z,58.23
2019-05-10T09:58:43.808Z,58.26
2019-05-10T10:01:20.741Z,55.91
2019-05-10T10:03:50.555Z,54.83
2019-05-10T10:06:24.395Z,53.30
2019-05-10T10:08:57.766Z,51.96
2019-05-10T10:11:31.144Z,51.96
2019-05-10T10:14:07.590Z,53.11
2019-05-10T10:16:48.859Z,51.86
2019-05-10T10:19:18.090Z,51.67
2019-05-10T10:21:49.745Z,49.92
2019-05-10T10:24:24.622Z,49.92
2019-05-10T10:26:58.125Z,51.26
2019-05-10T10:29:34.092Z,52.04
2019-05-10T10:32:07.987Z,52.04
2019-05-10T10:34:43.083Z,51.94
2019-05-10T10:37:14.679Z,50.73
2019-05-10T10:39:48.282Z,50.34
2019-05-10T10:42:20.572Z,49.29
2019-05-10T10:44:54.818Z,49.29
2019-05-10T10:47:30.994Z,48.95
2019-05-10T10:50:03.020Z,50.52
2019-05-10T10:52:37.637Z,50.52
2019-05-10T10:55:11.672Z,49.05
2019-05-10T10:57:45.270Z,47.00
2019-05-10T11:00:23.608Z,42.72
2019-05-10T11:02:56.311Z,42.72
2019-05-10T11:05:28.679Z,40.87
2019-05-10T11:08:01.352Z,40.87
2019-05-10T11:10:34.995Z,41.92
2019-05-10T11:13:13.241Z,41.92
2019-05-10T11:15:42.035Z,41.73
2019-05-10T11:18:21.668Z,40.25
2019-05-10T11:20:54.288Z,38.48
2019-05-10T11:23:34.030Z,38.27
2019-05-10T11:26:01.354Z,38.01
2019-05-10T11:28:38.555Z,41.25
2019-05-10T11:31:07.544Z,50.44
2019-05-10T11:33:41.531Z,52.48
2019-05-10T11:36:13.627Z,48.79
2019-05-10T11:38:47.067Z,44.17
2019-05-10T11:41:23.727Z,42.01
2019-05-10T11:43:57.971Z,41.14
2019-05-10T11:46:31.044Z,38.56
2019-05-10T11:49:03.484Z,39.23
2019-05-10T11:54:08.020Z,40.17
2019-05-10T11:56:41.072Z,39.24
2019-05-10T11:59:16.528Z,38.63
2019-05-10T12:01:55.062Z,38.63
2019-05-10T12:04:30.510Z,36.37
2019-05-10T12:06:56.331Z,36.18
2019-05-10T12:09:31.453Z,37.28
2019-05-10T12:12:03.588Z,36.79
2019-05-10T12:14:36.104Z,36.79
2019-05-10T12:17:17.143Z,35.35
2019-05-10T12:19:55.904Z,35.96
2019-05-10T12:22:31.966Z,35.94
2019-05-10T12:26:05.677Z,35.72
2019-05-10T12:27:46.956Z,36.17
2019-05-10T12:30:15.984Z,37.42
2019-05-10T12:33:08.973Z,37.98
2019-05-10T12:35:46.603Z,39.17
2019-05-10T12:38:28.857Z,39.96
2019-05-10T12:40:55.963Z,41.17
2019-05-10T12:43:30.799Z,38.76
2019-05-10T12:46:07.426Z,36.50
2019-05-10T12:48:40.059Z,33.46
2019-05-10T12:51:16.032Z,32.71
2019-05-10T12:53:49.236Z,31.13
2019-05-10T12:56:20.658Z,28.51
2019-05-10T12:58:59.309Z,28.73
2019-05-10T13:01:31.905Z,33.87
2019-05-10T13:04:13.865Z,33.87
2019-05-10T13:06:43.586Z,34.39
2019-05-10T13:09:16.145Z,34.39
2019-05-10T13:11:48.382Z,34.84
2019-05-10T13:14:22.002Z,33.96
2019-05-10T13:16:55.242Z,33.96
2019-05-10T13:19:27.737Z,34.55
2019-05-10T13:22:37.659Z,34.68
2019-05-10T13:25:10.887Z,35.47
2019-05-10T13:27:43.341Z,37.80
2019-05-10T13:30:27.379Z,38.60
2019-05-10T13:32:58.591Z,39.00
2019-05-10T13:35:35.437Z,39.49
2019-05-10T13:38:09.426Z,40.65
2019-05-10T13:40:45.660Z,41.64
2019-05-10T13:43:16.709Z,43.87
2019-05-10T13:45:53.379Z,46.66
2019-05-10T13:48:26.849Z,49.16
2019-05-10T13:51:01.057Z,49.90
2019-05-10T13:53:33.627Z,49.19
2019-05-10T13:56:06.282Z,48.91
2019-05-10T13:58:39.275Z,49.48
2019-05-10T14:01:14.598Z,49.90
2019-05-10T14:03:59.878Z,51.72
2019-05-10T14:06:26.435Z,56.27
2019-05-10T14:08:58.808Z,60.76
2019-05-10T14:11:34.291Z,68.04
2019-05-10T14:14:07.307Z,63.02
2019-05-10T14:18:39.348Z,62.59
2019-05-10T14:21:12.026Z,58.46
2019-05-10T14:23:44.610Z,58.46
2019-05-10T14:26:18.274Z,57.61
2019-05-10T14:28:53.109Z,55.63
2019-05-10T14:31:26.705Z,54.40
2019-05-10T14:34:14.821Z,53.26
2019-05-10T14:36:34.030Z,51.30
2019-05-10T14:39:09.882Z,44.63
2019-05-10T14:41:45.257Z,40.16
2019-05-10T14:44:19.644Z,40.42
2019-05-10T14:46:52.305Z,45.08
2019-05-10T14:49:24.879Z,45.11
2019-05-10T14:51:59.812Z,45.11
2019-05-10T14:54:43.370Z,45.91
2019-05-10T14:57:08.579Z,48.71
2019-05-10T14:59:42.586Z,48.24
2019-05-10T15:02:16.862Z,49.34
2019-05-10T15:04:49.478Z,49.17
2019-05-10T15:07:22.402Z,47.80
2019-05-10T15:10:00.238Z,46.87
2019-05-10T15:12:29.818Z,46.43
2019-05-10T15:15:02.696Z,46.45
2019-05-10T15:17:36.374Z,42.68
2019-05-10T15:20:09.247Z,41.81
2019-05-10T15:22:41.866Z,38.43
2019-05-10T15:25:17.395Z,37.47
2019-05-10T15:27:54.812Z,37.32
2019-05-10T15:30:28.316Z,36.68
2019-05-10T15:33:01.278Z,33.02
2019-05-10T15:35:35.124Z,28.00
2019-05-10T15:38:07.915Z,23.17
2019-05-10T15:40:44.522Z,21.29
2019-05-10T15:43:18.918Z,19.81
2019-05-10T15:45:54.712Z,20.10
2019-05-10T15:48:27.601Z,20.86
2019-05-10T15:51:01.282Z,20.36
2019-05-10T15:53:34.315Z,17.62
2019-05-10T15:56:07.072Z,17.62
2019-05-10T15:58:42.455Z,17.88
2019-05-10T16:01:14.733Z,16.72
2019-05-10T16:03:47.493Z,16.72
2019-05-10T16:06:20.646Z,16.58
2019-05-10T16:09:54.046Z,18.54
2019-05-10T16:12:21.583Z,21.13
2019-05-10T16:14:54.418Z,24.16
2019-05-10T16:17:28.310Z,26.58
2019-05-10T16:20:01.366Z,30.47
2019-05-10T16:22:34.630Z,30.47
2019-05-10T16:25:09.509Z,31.79
2019-05-10T16:27:44.903Z,33.46
2019-05-10T16:30:20.099Z,33.69
2019-05-10T16:32:51.254Z,35.96
2019-05-10T16:35:37.760Z,36.39
2019-05-10T16:37:59.100Z,37.19
2019-05-10T16:40:33.497Z,37.26
2019-05-10T16:43:06.925Z,37.08
2019-05-10T16:45:41.393Z,37.95
2019-05-10T16:48:14.580Z,39.55
2019-05-10T16:50:48.345Z,40.28
2019-05-10T16:53:21.366Z,40.78
2019-05-10T16:55:54.248Z,40.78
2019-05-10T16:58:28.301Z,40.54
2019-05-10T17:03:06.594Z,41.20
2019-05-10T17:05:52.321Z,41.78
2019-05-10T17:08:13.483Z,42.81
2019-05-10T17:10:46.574Z,43.72
2019-05-10T17:13:18.833Z,43.57
2019-05-10T17:15:51.315Z,43.57
2019-05-10T17:18:24.958Z,44.37
2019-05-10T17:20:57.864Z,44.87
2019-05-10T17:23:30.641Z,44.72
2019-05-10T17:26:03.381Z,45.22
2019-05-10T17:28:37.456Z,46.04
2019-05-10T17:31:10.343Z,46.23
2019-05-10T17:33:44.213Z,45.95
2019-05-10T17:36:19.728Z,46.24
2019-05-10T17:38:53.416Z,45.59
2019-05-10T17:41:27.023Z,45.99
2019-05-10T17:43:59.784Z,45.99
2019-05-10T17:46:33.355Z,46.57
2019-05-10T17:49:06.078Z,46.25
2019-05-10T17:51:38.772Z,46.30
2019-05-10T17:54:11.689Z,46.80
2019-05-10T17:56:44.366Z,46.97
2019-05-10T17:59:17.052Z,47.25
2019-05-10T18:01:49.714Z,47.72
2019-05-10T18:04:22.298Z,47.70
2019-05-10T18:06:55.714Z,47.87
2019-05-10T18:09:29.038Z,48.79
2019-05-10T18:12:01.999Z,49.23
2019-05-10T18:14:34.470Z,50.13
2019-05-10T18:17:07.403Z,50.80
2019-05-10T18:19:40.038Z,52.06
2019-05-10T18:22:12.460Z,53.16
2019-05-10T18:24:45.066Z,53.07
2019-05-10T18:27:17.655Z,53.22
2019-05-10T18:29:50.384Z,53.02
2019-05-10T18:32:22.994Z,53.91
2019-05-10T18:34:55.528Z,54.47
2019-05-10T18:37:29.018Z,54.63
2019-05-10T18:40:01.320Z,54.63
2019-05-10T18:42:33.888Z,55.37
2019-05-10T18:45:09.532Z,55.85
2019-05-10T18:47:42.307Z,56.45
2019-05-10T18:50:15.412Z,59.72
2019-05-10T18:52:48.034Z,59.72
2019-05-10T18:55:20.618Z,59.51
2019-05-10T18:57:53.301Z,59.93
2019-05-10T19:00:26.021Z,61.97
2019-05-10T19:02:59.085Z,61.97
2019-05-10T19:05:33.044Z,62.44
2019-05-10T19:08:06.539Z,63.48
2019-05-10T19:10:39.427Z,63.48
2019-05-10T19:13:12.979Z,63.66
2019-05-10T19:15:52.838Z,64.12
2019-05-10T19:18:23.210Z,65.22
2019-05-10T19:20:56.603Z,66.24
2019-05-10T19:23:29.572Z,67.01
2019-05-10T19:26:01.258Z,66.75
2019-05-10T19:28:33.683Z,67.35
2019-05-10T19:31:06.334Z,67.58
2019-05-10T19:33:39.287Z,67.17
2019-05-10T19:36:14.386Z,67.17
2019-05-10T19:38:46.812Z,67.21
2019-05-10T19:41:20.081Z,67.07
2019-05-10T19:43:55.818Z,67.60
2019-05-10T19:46:38.280Z,67.78
2019-05-10T19:49:07.557Z,67.56
2019-05-10T19:51:42.178Z,67.56
2019-05-10T19:54:18.871Z,68.38
2019-05-10T19:56:47.674Z,68.05
2019-05-10T19:59:20.139Z,68.24
2019-05-10T20:01:52.908Z,68.17
2019-05-10T20:04:25.442Z,68.37
2019-05-10T20:06:59.458Z,68.65
2019-05-10T20:09:32.412Z,68.19
2019-05-10T20:12:04.991Z,68.32
2019-05-10T20:14:37.571Z,68.78
2019-05-10T20:17:10.087Z,69.93
2019-05-10T20:19:42.549Z,69.85
2019-05-10T20:22:15.323Z,70.88
2019-05-10T20:26:42.778Z,70.75
2019-05-10T20:29:15.352Z,71.13
2019-05-10T20:31:47.987Z,72.01
2019-05-10T20:34:24.052Z,72.01
2019-05-10T20:36:54.998Z,72.59
2019-05-10T20:39:40.477Z,73.23
2019-05-10T20:42:23.441Z,73.88
2019-05-10T20:45:06.545Z,73.15
2019-05-10T20:47:31.440Z,73.45
2019-05-10T20:50:04.434Z,73.30
2019-05-10T20:52:37.318Z,73.18
2019-05-10T20:55:11.569Z,73.69
2019-05-10T20:57:44.556Z,73.69
2019-05-10T21:00:18.637Z,74.32
2019-05-10T21:02:51.595Z,73.98
2019-05-10T21:05:26.511Z,74.13
2019-05-10T21:08:16.469Z,74.00
2019-05-10T21:10:39.116Z,74.39
2019-05-10T21:13:12.025Z,74.45
2019-05-10T21:15:44.560Z,74.13
2019-05-10T21:18:18.323Z,74.76
2019-05-10T21:20:51.320Z,73.99
2019-05-10T21:23:23.792Z,74.41
2019-05-10T21:25:56.303Z,74.41
2019-05-10T21:30:34.314Z,75.67
2019-05-10T21:33:07.144Z,76.50
2019-05-10T21:35:42.656Z,76.80
2019-05-10T21:38:15.564Z,75.84
2019-05-10T21:40:48.888Z,78.17
2019-05-10T21:43:21.646Z,78.27
2019-05-10T21:45:57.852Z,78.82
2019-05-10T21:48:30.654Z,78.82
2019-05-10T21:51:05.769Z,77.71
2019-05-10T21:53:38.543Z,78.06
2019-05-10T21:56:11.318Z,77.65
2019-05-10T21:58:44.459Z,77.92
2019-05-10T22:01:18.848Z,77.92
2019-05-10T22:03:51.639Z,77.42
2019-05-10T22:06:25.314Z,77.43
2019-05-10T22:08:58.661Z,77.40
2019-05-10T22:11:31.625Z,77.32
2019-05-10T22:14:07.400Z,77.25
2019-05-10T22:16:40.807Z,76.94
2019-05-10T22:19:13.630Z,76.69
2019-05-10T22:21:46.001Z,77.85
2019-05-10T22:24:18.564Z,76.25
2019-05-10T22:26:51.033Z,78.45
2019-05-10T22:29:24.393Z,81.51
2019-05-10T22:31:57.109Z,83.54
2019-05-10T22:34:31.045Z,93.75
2019-05-10T22:37:03.694Z,94.69
2019-05-10T22:39:36.296Z,94.12
2019-05-10T22:42:08.850Z,95.71
2019-05-10T22:44:41.959Z,95.71
2019-05-10T22:47:14.610Z,97.68
2019-05-10T22:49:46.292Z,98.76
2019-05-10T22:52:18.889Z,97.21
2019-05-10T22:54:50.578Z,98.12
2019-05-10T22:57:23.346Z,98.80
2019-05-10T22:59:56.080Z,97.61
2019-05-10T23:02:28.782Z,97.81
2019-05-10T23:05:03.222Z,95.92
2019-05-10T23:07:37.509Z,98.28
2019-05-10T23:10:11.631Z,98.28
2019-05-10T23:12:44.293Z,98.11
2019-05-10T23:15:19.698Z,97.00
2019-05-10T23:17:52.399Z,97.48
2019-05-10T23:20:25.021Z,95.64
2019-05-10T23:22:57.787Z,97.34
2019-05-10T23:25:31.317Z,98.06
2019-05-10T23:28:03.725Z,97.47
2019-05-10T23:30:36.497Z,97.47
2019-05-10T23:33:09.286Z,96.86
2019-05-10T23:35:41.785Z,98.38
2019-05-10T23:38:14.406Z,100.00
2019-05-10T23:40:46.644Z,100.00
2019-05-10T23:43:18.616Z,100.00
2019-05-10T23:45:51.910Z,100.00
2019-05-10T23:48:27.772Z,100.00
2019-05-10T23:51:01.459Z,100.00
2019-05-10T23:53:33.767Z,99.38
2019-05-10T23:56:06.349Z,99.12
2019-05-10T23:58:39.292Z,99.55
